createdAt,value
2022-11-06T00:00:26.931Z,12.13
2022-11-06T00:02:56.620Z,12.60
2022-11-06T00:05:23.138Z,16.15
2022-11-06T00:07:49.825Z,13.05
2022-11-06T00:10:17.215Z,12.77
2022-11-06T00:12:44.721Z,16.43
2022-11-06T00:15:12.033Z,16.58
2022-11-06T00:17:40.386Z,15.32
2022-11-06T00:20:08.217Z,16.05
2022-11-06T00:22:35.858Z,13.35
2022-11-06T00:25:02.643Z,13.77
2022-11-06T00:27:29.232Z,14.32
2022-11-06T00:29:55.863Z,12.85
2022-11-06T00:32:22.681Z,16.52
2022-11-06T00:34:50.528Z,15.85
2022-11-06T00:37:17.025Z,16.80
2022-11-06T00:39:43.540Z,17.55
2022-11-06T00:42:10.214Z,16.60
2022-11-06T00:44:36.740Z,16.35
2022-11-06T00:47:03.398Z,17.05
2022-11-06T00:49:30.078Z,18.47
2022-11-06T00:51:58.046Z,16.55
2022-11-06T00:54:24.731Z,15.95
2022-11-06T00:56:51.261Z,14.48
2022-11-06T00:59:18.002Z,19.27
2022-11-06T01:01:45.569Z,17.93
2022-11-06T01:04:14.729Z,15.98
2022-11-06T01:06:43.403Z,14.88
2022-11-06T01:09:13.113Z,15.88
2022-11-06T01:12:11.262Z,14.18
2022-11-06T01:14:28.193Z,14.47
2022-11-06T01:16:54.869Z,15.48
2022-11-06T01:19:22.045Z,14.57
2022-11-06T01:21:51.331Z,12.75
2022-11-06T01:24:21.680Z,13.25
2022-11-06T01:27:12.005Z,15.63
2022-11-06T01:29:35.467Z,15.25
2022-11-06T01:32:02.007Z,11.95
2022-11-06T01:34:28.799Z,13.52
2022-11-06T01:36:55.308Z,14.43
2022-11-06T01:39:23.192Z,12.23
2022-11-06T01:41:51.926Z,14.43
2022-11-06T01:44:55.732Z,13.00
2022-11-06T01:47:24.777Z,12.75
2022-11-06T01:49:55.058Z,15.05
2022-11-06T01:52:23.496Z,13.23
2022-11-06T01:54:54.702Z,11.77
2022-11-06T01:57:22.113Z,14.30
2022-11-06T01:59:51.651Z,12.20
2022-11-06T02:02:18.809Z,14.05
2022-11-06T02:04:49.428Z,14.97
2022-11-06T02:07:18.101Z,13.10
2022-11-06T02:09:44.818Z,15.70
2022-11-06T02:12:39.184Z,20.10
2022-11-06T02:15:12.233Z,14.02
2022-11-06T02:17:52.135Z,16.03
2022-11-06T02:20:27.542Z,13.40
2022-11-06T02:23:11.255Z,16.55
2022-11-06T02:25:46.161Z,14.57
2022-11-06T02:28:21.772Z,16.60
2022-11-06T02:30:49.821Z,13.07
2022-11-06T02:33:21.112Z,14.07
2022-11-06T02:35:52.675Z,14.65
2022-11-06T02:38:24.072Z,15.68
2022-11-06T02:40:55.073Z,13.63
2022-11-06T02:43:28.990Z,15.60
2022-11-06T02:45:58.126Z,15.40
2022-11-06T02:48:30.266Z,15.18
2022-11-06T02:51:00.691Z,12.57
2022-11-06T02:53:28.557Z,15.63
2022-11-06T02:55:59.975Z,15.17
2022-11-06T02:58:36.741Z,15.82
2022-11-06T03:01:11.562Z,16.60
2022-11-06T03:03:43.215Z,14.68
2022-11-06T03:06:15.038Z,13.80
2022-11-06T03:08:46.365Z,14.67
2022-11-06T03:11:17.564Z,16.15
2022-11-06T03:13:51.618Z,14.38
2022-11-06T03:16:28.954Z,18.00
2022-11-06T03:19:02.505Z,15.55
2022-11-06T03:21:35.203Z,14.63
2022-11-06T03:24:10.756Z,14.02
2022-11-06T03:26:40.471Z,16.52
2022-11-06T03:29:14.398Z,12.00
2022-11-06T03:31:49.306Z,12.82
2022-11-06T03:34:22.970Z,13.13
2022-11-06T03:36:54.449Z,15.38
2022-11-06T03:39:25.577Z,13.35
2022-11-06T03:41:59.156Z,13.55
2022-11-06T03:44:29.882Z,16.80
2022-11-06T03:47:02.103Z,14.30
2022-11-06T03:49:32.595Z,13.80
2022-11-06T03:52:03.015Z,13.65
2022-11-06T03:54:34.427Z,14.68
2022-11-06T03:57:08.350Z,14.10
2022-11-06T03:59:42.315Z,13.17
2022-11-06T04:02:13.015Z,12.40
2022-11-06T04:04:47.503Z,21.30
2022-11-06T04:07:16.657Z,14.07
2022-11-06T04:09:49.061Z,14.55
2022-11-06T04:12:20.285Z,12.90
2022-11-06T04:14:52.659Z,14.60
2022-11-06T04:17:22.487Z,11.45
2022-11-06T04:19:52.440Z,13.90
2022-11-06T04:22:34.310Z,14.90
2022-11-06T04:25:13.015Z,13.40
2022-11-06T04:27:53.673Z,12.90
2022-11-06T04:30:21.817Z,12.10
2022-11-06T04:33:02.060Z,15.10
2022-11-06T04:35:37.651Z,12.07
2022-11-06T04:38:11.641Z,15.30
2022-11-06T04:40:49.453Z,15.15
2022-11-06T04:43:24.120Z,12.18
2022-11-06T04:45:55.910Z,12.40
2022-11-06T04:48:24.722Z,11.80
2022-11-06T04:50:54.650Z,12.47
2022-11-06T04:53:23.789Z,12.75
2022-11-06T04:55:52.511Z,12.77
2022-11-06T04:58:19.012Z,11.50
2022-11-06T05:00:47.623Z,12.63
2022-11-06T05:03:16.411Z,14.13
2022-11-06T05:05:43.253Z,13.27
2022-11-06T05:08:14.488Z,17.10
2022-11-06T05:10:41.426Z,13.20
2022-11-06T05:13:07.995Z,14.40
2022-11-06T05:15:34.510Z,11.93
2022-11-06T05:18:01.246Z,13.20
2022-11-06T05:20:29.345Z,11.73
2022-11-06T05:22:55.857Z,11.85
2022-11-06T05:25:22.346Z,12.63
2022-11-06T05:27:48.839Z,12.83
2022-11-06T05:30:15.442Z,11.10
2022-11-06T05:32:41.921Z,10.73
2022-11-06T05:35:08.920Z,12.98
2022-11-06T05:37:36.782Z,12.98
2022-11-06T05:40:03.742Z,12.97
2022-11-06T05:42:30.397Z,11.75
2022-11-06T05:44:56.898Z,16.23
2022-11-06T05:47:23.407Z,12.32
2022-11-06T05:49:49.910Z,11.77
2022-11-06T05:52:16.406Z,10.43
2022-11-06T05:54:44.431Z,15.57
2022-11-06T05:57:10.950Z,9.90
2022-11-06T05:59:37.435Z,12.75
2022-11-06T06:02:04.297Z,13.60
2022-11-06T06:04:30.892Z,12.53
2022-11-06T06:06:57.550Z,11.88
2022-11-06T06:09:24.075Z,10.98
2022-11-06T06:11:52.640Z,13.38
2022-11-06T06:14:19.526Z,12.18
2022-11-06T06:16:46.234Z,10.47
2022-11-06T06:19:13.253Z,12.60
2022-11-06T06:21:39.769Z,12.77
2022-11-06T06:24:07.188Z,11.15
2022-11-06T06:26:33.722Z,13.85
2022-11-06T06:29:01.669Z,12.03
2022-11-06T06:31:28.384Z,12.00
2022-11-06T06:33:54.911Z,10.95
2022-11-06T06:36:21.597Z,13.07
2022-11-06T06:38:48.101Z,12.30
2022-11-06T06:41:14.624Z,11.93
2022-11-06T06:43:41.281Z,11.70
2022-11-06T06:46:09.640Z,12.93
2022-11-06T06:48:36.147Z,10.85
2022-11-06T06:51:03.223Z,11.02
2022-11-06T06:53:29.758Z,10.07
2022-11-06T06:55:58.418Z,11.32
2022-11-06T06:58:25.343Z,11.25
2022-11-06T07:00:52.058Z,13.13
2022-11-06T07:03:19.989Z,12.23
2022-11-06T07:05:46.578Z,12.00
2022-11-06T07:08:13.400Z,12.05
2022-11-06T07:10:40.249Z,11.65
2022-11-06T07:13:06.754Z,11.93
2022-11-06T07:15:33.535Z,14.40
2022-11-06T07:18:02.238Z,13.27
2022-11-06T07:20:30.366Z,11.63
2022-11-06T07:22:56.928Z,13.05
2022-11-06T07:25:23.815Z,10.23
2022-11-06T07:27:50.489Z,13.02
2022-11-06T07:30:17.428Z,10.80
2022-11-06T07:32:43.968Z,10.77
2022-11-06T07:35:10.504Z,12.35
2022-11-06T07:37:38.404Z,15.25
2022-11-06T07:40:06.149Z,9.18
2022-11-06T07:42:32.789Z,11.80
2022-11-06T07:44:59.352Z,10.75
2022-11-06T07:47:25.864Z,12.07
2022-11-06T07:49:52.376Z,11.43
2022-11-06T07:52:19.141Z,9.52
2022-11-06T07:54:47.046Z,9.30
2022-11-06T07:57:13.810Z,11.95
2022-11-06T07:59:40.321Z,10.80
2022-11-06T08:02:07.145Z,7.50
2022-11-06T08:04:33.726Z,8.52
2022-11-06T08:07:00.425Z,10.60
2022-11-06T08:09:26.956Z,9.75
2022-11-06T08:11:54.873Z,12.90
2022-11-06T08:14:21.537Z,7.28
2022-11-06T08:16:48.200Z,8.98
2022-11-06T08:19:14.733Z,7.40
2022-11-06T08:21:41.366Z,8.32
2022-11-06T08:24:08.045Z,8.38
2022-11-06T08:26:34.558Z,10.32
2022-11-06T08:29:02.606Z,9.63
2022-11-06T08:31:29.090Z,8.67
2022-11-06T08:33:55.582Z,7.75
2022-11-06T08:36:22.095Z,7.75
2022-11-06T08:38:48.597Z,7.70
2022-11-06T08:41:15.353Z,8.65
2022-11-06T08:43:41.882Z,6.93
2022-11-06T08:46:10.706Z,8.50
2022-11-06T08:48:37.268Z,5.85
2022-11-06T08:51:04.942Z,7.03
2022-11-06T08:53:31.701Z,6.82
2022-11-06T08:55:58.346Z,6.57
2022-11-06T08:58:25.006Z,7.97
2022-11-06T09:00:51.624Z,6.18
2022-11-06T09:03:19.520Z,6.60
2022-11-06T09:05:46.898Z,8.50
2022-11-06T09:08:14.384Z,7.40
2022-11-06T09:10:42.643Z,6.03
2022-11-06T09:13:09.783Z,6.20
2022-11-06T09:15:36.731Z,7.85
2022-11-06T09:18:03.592Z,8.18
2022-11-06T09:20:31.442Z,6.53
2022-11-06T09:23:00.861Z,9.07
2022-11-06T09:25:27.613Z,7.88
2022-11-06T09:27:58.885Z,6.28
2022-11-06T09:30:27.985Z,7.35
2022-11-06T09:32:55.869Z,7.43
2022-11-06T09:35:24.471Z,6.88
2022-11-06T09:37:52.398Z,6.82
2022-11-06T09:40:22.095Z,6.50
2022-11-06T09:43:02.208Z,7.85
2022-11-06T09:45:31.623Z,6.33
2022-11-06T09:48:04.057Z,5.93
2022-11-06T09:50:37.291Z,7.03
2022-11-06T09:53:15.333Z,7.90
2022-11-06T09:55:44.414Z,6.03
2022-11-06T09:58:16.425Z,7.27
2022-11-06T10:00:43.598Z,8.70
2022-11-06T10:03:18.363Z,7.57
2022-11-06T10:05:46.086Z,6.50
2022-11-06T10:08:19.586Z,6.80
2022-11-06T10:10:54.294Z,5.37
2022-11-06T10:13:42.299Z,6.32
2022-11-06T10:16:18.374Z,5.97
2022-11-06T10:18:56.796Z,6.05
2022-11-06T10:21:25.244Z,6.18
2022-11-06T10:23:56.605Z,5.30
2022-11-06T10:26:33.885Z,7.40
2022-11-06T10:29:23.953Z,5.53
2022-11-06T10:32:08.250Z,7.47
2022-11-06T10:34:39.266Z,6.57
2022-11-06T10:37:10.896Z,6.60
2022-11-06T10:39:39.568Z,5.13
2022-11-06T10:42:10.914Z,8.57
2022-11-06T10:44:40.959Z,6.88
2022-11-06T10:47:15.515Z,5.30
2022-11-06T10:49:47.639Z,6.00
2022-11-06T10:52:33.533Z,5.18
2022-11-06T10:55:41.601Z,5.93
2022-11-06T10:58:10.198Z,3.97
2022-11-06T11:00:37.000Z,5.15
2022-11-06T11:03:05.774Z,6.37
2022-11-06T11:05:38.528Z,5.93
2022-11-06T11:08:05.554Z,5.55
2022-11-06T11:10:35.745Z,6.07
2022-11-06T11:13:08.491Z,6.88
2022-11-06T11:15:43.764Z,5.10
2022-11-06T11:18:17.329Z,5.32
2022-11-06T11:20:45.590Z,5.18
2022-11-06T11:23:18.530Z,4.97
2022-11-06T11:25:48.399Z,5.10
2022-11-06T11:28:29.456Z,5.90
2022-11-06T11:31:04.517Z,6.10
2022-11-06T11:33:31.773Z,4.97
2022-11-06T11:35:58.329Z,4.95
2022-11-06T11:38:25.230Z,5.18
2022-11-06T11:41:06.198Z,5.80
2022-11-06T11:43:34.266Z,6.15
2022-11-06T11:46:17.693Z,5.38
2022-11-06T11:48:45.807Z,4.88
2022-11-06T11:51:19.427Z,5.20
2022-11-06T11:53:46.236Z,5.17
2022-11-06T11:56:31.284Z,5.90
2022-11-06T11:59:05.795Z,5.07
2022-11-06T12:01:39.597Z,8.23
2022-11-06T12:04:18.283Z,5.25
2022-11-06T12:06:57.454Z,5.70
2022-11-06T12:09:25.351Z,6.00
2022-11-06T12:11:55.881Z,4.50
2022-11-06T12:14:29.226Z,6.68
2022-11-06T12:17:00.571Z,5.35
2022-11-06T12:19:30.721Z,4.67
2022-11-06T12:22:01.415Z,4.38
2022-11-06T12:24:32.609Z,5.57
2022-11-06T12:27:06.703Z,5.53
2022-11-06T12:29:36.377Z,5.40
2022-11-06T12:32:12.060Z,5.33
2022-11-06T12:34:47.811Z,5.28
2022-11-06T12:37:20.983Z,6.30
2022-11-06T12:39:54.089Z,5.68
2022-11-06T12:42:25.403Z,5.28
2022-11-06T12:44:51.901Z,5.23
2022-11-06T12:47:29.205Z,6.65
2022-11-06T12:50:18.322Z,4.15
2022-11-06T12:53:06.613Z,4.57
2022-11-06T12:55:37.584Z,4.53
2022-11-06T12:58:39.355Z,5.70
2022-11-06T13:01:13.471Z,4.82
2022-11-06T13:04:03.428Z,3.95
2022-11-06T13:06:56.781Z,4.65
2022-11-06T13:09:29.767Z,3.38
2022-11-06T13:12:06.038Z,4.27
2022-11-06T13:14:41.643Z,4.72
2022-11-06T13:17:15.484Z,4.13
2022-11-06T13:19:49.871Z,4.53
2022-11-06T13:22:26.191Z,5.13
2022-11-06T13:24:59.394Z,6.73
2022-11-06T13:27:31.471Z,5.05
2022-11-06T13:30:05.484Z,5.25
2022-11-06T13:32:36.047Z,4.47
2022-11-06T13:35:03.749Z,5.75
2022-11-06T13:37:37.958Z,11.40
2022-11-06T13:40:17.051Z,8.00
2022-11-06T13:42:50.936Z,5.97
2022-11-06T13:45:20.363Z,5.78
2022-11-06T13:48:00.849Z,4.18
2022-11-06T13:50:33.814Z,6.33
2022-11-06T13:53:04.929Z,6.70
2022-11-06T13:55:46.613Z,5.05
2022-11-06T13:58:45.497Z,4.40
2022-11-06T14:01:24.949Z,5.18
2022-11-06T14:04:26.800Z,4.57
2022-11-06T14:06:56.312Z,4.15
2022-11-06T14:09:26.254Z,5.15
2022-11-06T14:11:54.895Z,5.32
2022-11-06T14:14:27.336Z,4.97
2022-11-06T14:17:13.345Z,5.00
2022-11-06T14:19:43.149Z,5.00
2022-11-06T14:22:26.347Z,4.57
2022-11-06T14:24:58.426Z,4.15
2022-11-06T14:28:05.934Z,7.20
2022-11-06T14:31:10.983Z,5.53
2022-11-06T14:34:01.411Z,3.90
2022-11-06T14:36:37.189Z,5.05
2022-11-06T14:39:09.287Z,4.60
2022-11-06T14:41:54.844Z,4.35
2022-11-06T14:44:28.883Z,4.30
2022-11-06T14:46:58.517Z,6.60
2022-11-06T14:49:34.311Z,4.05
2022-11-06T14:52:04.563Z,5.38
2022-11-06T14:54:33.955Z,3.50
2022-11-06T14:57:00.745Z,4.77
2022-11-06T14:59:33.040Z,3.83
2022-11-06T15:02:03.795Z,4.80
2022-11-06T15:04:33.227Z,7.68
2022-11-06T15:07:08.562Z,5.72
2022-11-06T15:09:45.421Z,6.27
2022-11-06T15:12:12.120Z,5.63
2022-11-06T15:14:56.741Z,5.57
2022-11-06T15:17:27.137Z,4.82
2022-11-06T15:20:05.129Z,4.85
2022-11-06T15:22:35.820Z,6.93
2022-11-06T15:25:18.663Z,5.25
2022-11-06T15:27:51.182Z,5.85
2022-11-06T15:30:20.264Z,5.60
2022-11-06T15:32:48.855Z,7.82
2022-11-06T15:35:20.119Z,5.40
2022-11-06T15:37:50.316Z,6.75
2022-11-06T15:40:26.826Z,6.72
2022-11-06T15:42:55.811Z,6.85
2022-11-06T15:45:25.608Z,6.55
2022-11-06T15:47:53.810Z,7.07
2022-11-06T15:50:24.094Z,6.75
2022-11-06T15:52:50.666Z,9.23
2022-11-06T15:55:26.007Z,7.40
2022-11-06T15:57:52.883Z,9.02
2022-11-06T16:00:22.327Z,9.60
2022-11-06T16:02:50.594Z,7.90
2022-11-06T16:05:18.383Z,8.38
2022-11-06T16:07:47.614Z,7.70
2022-11-06T16:10:15.871Z,9.15
2022-11-06T16:12:42.594Z,9.53
2022-11-06T16:15:42.727Z,9.98
2022-11-06T16:18:14.334Z,7.85
2022-11-06T16:20:42.271Z,8.93
2022-11-06T16:23:14.447Z,8.23
2022-11-06T16:25:41.845Z,8.27
2022-11-06T16:28:17.158Z,9.85
2022-11-06T16:30:45.346Z,9.07
2022-11-06T16:33:19.249Z,8.48
2022-11-06T16:35:50.051Z,10.15
2022-11-06T16:38:43.745Z,7.90
2022-11-06T16:41:12.137Z,8.43
2022-11-06T16:43:39.017Z,8.95
2022-11-06T16:46:07.393Z,7.68
2022-11-06T16:48:38.784Z,8.27
2022-11-06T16:51:08.301Z,8.10
2022-11-06T16:54:02.675Z,8.45
2022-11-06T16:56:31.420Z,9.00
2022-11-06T16:59:02.589Z,7.80
2022-11-06T17:01:37.729Z,7.78
2022-11-06T17:04:04.618Z,7.97
2022-11-06T17:06:33.290Z,8.32
2022-11-06T17:09:09.308Z,8.25
2022-11-06T17:11:36.884Z,12.30
2022-11-06T17:14:17.224Z,9.38
2022-11-06T17:16:48.518Z,8.27
2022-11-06T17:19:15.312Z,8.65
2022-11-06T17:21:41.903Z,8.45
2022-11-06T17:24:35.460Z,7.65
2022-11-06T17:26:56.563Z,8.15
2022-11-06T17:29:23.102Z,8.10
2022-11-06T17:31:49.648Z,8.75
2022-11-06T17:34:16.317Z,8.55
2022-11-06T17:36:43.134Z,8.82
2022-11-06T17:39:11.042Z,9.30
2022-11-06T17:41:37.676Z,9.13
2022-11-06T17:44:06.411Z,8.57
2022-11-06T17:46:35.144Z,8.70
2022-11-06T17:49:02.579Z,9.95
2022-11-06T17:51:29.349Z,8.60
2022-11-06T17:53:55.868Z,11.10
2022-11-06T17:56:23.710Z,10.27
2022-11-06T17:58:50.241Z,9.15
2022-11-06T18:01:16.771Z,10.75
2022-11-06T18:03:44.964Z,9.73
2022-11-06T18:06:12.972Z,8.43
2022-11-06T18:08:39.637Z,9.60
2022-11-06T18:11:07.027Z,10.90
2022-11-06T18:13:37.488Z,9.77
2022-11-06T18:16:05.056Z,10.73
2022-11-06T18:18:31.556Z,11.23
2022-11-06T18:20:58.232Z,10.85
2022-11-06T18:23:24.736Z,9.90
2022-11-06T18:25:55.407Z,9.40
2022-11-06T18:28:22.422Z,10.10
2022-11-06T18:30:50.477Z,10.03
2022-11-06T18:33:17.217Z,9.45
2022-11-06T18:35:44.151Z,10.40
2022-11-06T18:38:13.734Z,10.85
2022-11-06T18:40:40.553Z,10.43
2022-11-06T18:43:07.090Z,10.40
2022-11-06T18:45:36.539Z,9.77
2022-11-06T18:48:04.755Z,10.85
2022-11-06T18:50:31.324Z,10.85
2022-11-06T18:52:58.685Z,12.18
2022-11-06T18:55:25.529Z,13.23
2022-11-06T18:57:52.689Z,12.07
2022-11-06T19:00:19.382Z,11.80
2022-11-06T19:02:46.063Z,11.55
2022-11-06T19:05:14.235Z,12.30
2022-11-06T19:07:40.774Z,12.73
2022-11-06T19:10:08.390Z,13.23
2022-11-06T19:12:38.008Z,12.35
2022-11-06T19:15:05.312Z,12.43
2022-11-06T19:17:31.817Z,11.82
2022-11-06T19:19:58.367Z,13.90
2022-11-06T19:22:26.225Z,14.38
2022-11-06T19:24:52.765Z,11.98
2022-11-06T19:27:19.413Z,12.07
2022-11-06T19:29:45.927Z,12.82
2022-11-06T19:32:12.477Z,12.40
2022-11-06T19:34:39.441Z,14.82
2022-11-06T19:37:06.244Z,12.18
2022-11-06T19:39:34.313Z,12.02
2022-11-06T19:42:01.001Z,12.85
2022-11-06T19:44:27.534Z,12.23
2022-11-06T19:46:54.046Z,12.90
2022-11-06T19:49:20.659Z,12.43
2022-11-06T19:51:47.161Z,14.27
2022-11-06T19:54:14.802Z,11.10
2022-11-06T19:57:29.534Z,13.40
2022-11-06T19:59:29.329Z,13.57
2022-11-06T20:01:56.130Z,10.95
2022-11-06T20:04:22.866Z,11.15
2022-11-06T20:06:49.394Z,11.48
2022-11-06T20:09:15.938Z,11.93
2022-11-06T20:11:43.965Z,11.18
2022-11-06T20:14:10.481Z,10.10
2022-11-06T20:16:37.228Z,10.00
2022-11-06T20:19:03.966Z,10.40
2022-11-06T20:21:30.814Z,9.27
2022-11-06T20:23:57.416Z,10.23
2022-11-06T20:26:25.079Z,10.90
2022-11-06T20:28:52.986Z,9.27
2022-11-06T20:31:20.339Z,9.52
2022-11-06T20:33:47.469Z,10.00
2022-11-06T20:36:16.194Z,9.73
2022-11-06T20:38:43.120Z,9.98
2022-11-06T20:41:09.636Z,9.05
2022-11-06T20:43:36.559Z,10.90
2022-11-06T20:46:04.916Z,9.47
2022-11-06T20:48:32.877Z,8.65
2022-11-06T20:51:01.137Z,8.85
2022-11-06T20:53:28.614Z,8.75
2022-11-06T20:55:56.519Z,9.45
2022-11-06T20:58:23.317Z,8.00
2022-11-06T21:00:49.830Z,9.27
2022-11-06T21:03:17.861Z,8.52
2022-11-06T21:05:45.106Z,7.35
2022-11-06T21:08:11.633Z,9.15
2022-11-06T21:10:38.183Z,10.73
2022-11-06T21:13:04.712Z,7.35
2022-11-06T21:15:31.339Z,8.52
2022-11-06T21:17:57.836Z,9.13
2022-11-06T21:20:25.858Z,11.77
2022-11-06T21:22:52.359Z,8.10
2022-11-06T21:25:19.047Z,7.40
2022-11-06T21:27:45.612Z,7.93
2022-11-06T21:30:12.268Z,8.27
2022-11-06T21:32:38.774Z,8.27
2022-11-06T21:35:06.388Z,7.37
2022-11-06T21:37:34.234Z,7.75
2022-11-06T21:40:00.849Z,8.65
2022-11-06T21:42:27.458Z,7.55
2022-11-06T21:44:53.953Z,8.18
2022-11-06T21:47:20.624Z,7.43
2022-11-06T21:49:47.123Z,7.25
2022-11-06T21:52:13.787Z,10.05
2022-11-06T21:54:41.621Z,9.32
2022-11-06T21:57:08.143Z,7.38
2022-11-06T21:59:41.337Z,6.97
2022-11-06T22:02:09.104Z,6.32
2022-11-06T22:04:35.849Z,7.15
2022-11-06T22:07:02.378Z,7.03
2022-11-06T22:09:28.923Z,6.53
2022-11-06T22:11:59.044Z,6.50
2022-11-06T22:14:25.577Z,6.32
2022-11-06T22:16:52.311Z,9.05
2022-11-06T22:19:18.851Z,6.13
2022-11-06T22:21:45.581Z,6.63
2022-11-06T22:24:14.142Z,5.97
2022-11-06T22:26:40.796Z,7.30
2022-11-06T22:29:11.351Z,10.98
2022-11-06T22:31:38.111Z,8.15
2022-11-06T22:34:04.883Z,7.55
2022-11-06T22:36:31.632Z,6.63
2022-11-06T22:38:58.173Z,6.20
2022-11-06T22:41:25.014Z,7.78
2022-11-06T22:43:52.360Z,8.13
2022-11-06T22:46:22.505Z,7.18
2022-11-06T22:48:49.848Z,7.63
2022-11-06T22:51:18.761Z,7.78
2022-11-06T22:53:45.534Z,8.38
2022-11-06T22:56:12.772Z,7.10
2022-11-06T22:58:40.204Z,7.28
2022-11-06T23:01:07.446Z,6.53
2022-11-06T23:03:35.545Z,7.03
2022-11-06T23:06:03.670Z,7.32
2022-11-06T23:08:30.685Z,7.18
2022-11-06T23:10:57.545Z,6.57
2022-11-06T23:13:24.846Z,6.83
2022-11-06T23:15:59.995Z,7.18
2022-11-06T23:18:26.533Z,6.57
2022-11-06T23:20:54.466Z,6.97
2022-11-06T23:23:21.118Z,7.20
2022-11-06T23:25:47.619Z,6.47
2022-11-06T23:28:14.281Z,7.35
2022-11-06T23:30:40.812Z,6.53
2022-11-06T23:33:07.548Z,6.78
2022-11-06T23:35:34.105Z,7.88
2022-11-06T23:38:01.963Z,6.33
2022-11-06T23:40:28.472Z,7.50
2022-11-06T23:42:55.045Z,6.60
2022-11-06T23:45:21.842Z,8.18
2022-11-06T23:47:48.870Z,7.32
2022-11-06T23:50:15.765Z,6.83
2022-11-06T23:52:42.387Z,6.03
2022-11-06T23:55:11.138Z,6.40
2022-11-06T23:57:37.945Z,7.93
